sensor_id;sensor_type;location;lat;lon;timestamp;P1;durP1;ratioP1;P2;durP2;ratioP2
15936;SDS011;9163;48.818;8.976;2022-09-17T00:01:13;4.30;;;0.90;;
15936;SDS011;9163;48.818;8.976;2022-09-17T00:03:42;1.63;;;0.90;;
15936;SDS011;9163;48.818;8.976;2022-09-17T00:06:10;1.63;;;0.90;;
15936;SDS011;9163;48.818;8.976;2022-09-17T00:08:40;2.40;;;1.00;;
15936;SDS011;9163;48.818;8.976;2022-09-17T00:11:08;1.60;;;1.00;;
15936;SDS011;9163;48.818;8.976;2022-09-17T00:13:38;1.50;;;0.77;;
15936;SDS011;9163;48.818;8.976;2022-09-17T00:16:06;1.60;;;1.10;;
15936;SDS011;9163;48.818;8.976;2022-09-17T00:18:33;3.73;;;1.17;;
15936;SDS011;9163;48.818;8.976;2022-09-17T00:21:01;1.83;;;1.10;;
15936;SDS011;9163;48.818;8.976;2022-09-17T00:23:29;2.03;;;1.07;;
15936;SDS011;9163;48.818;8.976;2022-09-17T00:25:57;1.53;;;1.00;;
15936;SDS011;9163;48.818;8.976;2022-09-17T00:28:25;3.03;;;1.30;;
15936;SDS011;9163;48.818;8.976;2022-09-17T00:30:52;1.33;;;1.10;;
15936;SDS011;9163;48.818;8.976;2022-09-17T00:33:19;4.67;;;1.40;;
15936;SDS011;9163;48.818;8.976;2022-09-17T00:35:55;2.47;;;1.30;;
15936;SDS011;9163;48.818;8.976;2022-09-17T00:38:24;2.20;;;1.20;;
15936;SDS011;9163;48.818;8.976;2022-09-17T00:40:51;4.23;;;1.50;;
15936;SDS011;9163;48.818;8.976;2022-09-17T00:43:33;1.67;;;1.40;;
15936;SDS011;9163;48.818;8.976;2022-09-17T00:46:02;1.77;;;1.20;;
15936;SDS011;9163;48.818;8.976;2022-09-17T00:48:31;3.87;;;1.30;;
15936;SDS011;9163;48.818;8.976;2022-09-17T00:50:58;1.63;;;1.20;;
15936;SDS011;9163;48.818;8.976;2022-09-17T00:53:27;1.90;;;1.30;;
15936;SDS011;9163;48.818;8.976;2022-09-17T00:55:56;3.40;;;1.20;;
15936;SDS011;9163;48.818;8.976;2022-09-17T00:58:27;2.43;;;1.40;;
15936;SDS011;9163;48.818;8.976;2022-09-17T01:00:59;3.03;;;1.40;;
15936;SDS011;9163;48.818;8.976;2022-09-17T01:03:26;1.97;;;1.27;;
15936;SDS011;9163;48.818;8.976;2022-09-17T01:05:55;3.67;;;1.37;;
15936;SDS011;9163;48.818;8.976;2022-09-17T01:08:33;4.43;;;1.53;;
15936;SDS011;9163;48.818;8.976;2022-09-17T01:11:15;3.57;;;1.43;;
15936;SDS011;9163;48.818;8.976;2022-09-17T01:13:59;3.83;;;1.63;;
15936;SDS011;9163;48.818;8.976;2022-09-17T01:16:39;3.20;;;1.60;;
15936;SDS011;9163;48.818;8.976;2022-09-17T01:19:22;4.23;;;1.60;;
15936;SDS011;9163;48.818;8.976;2022-09-17T01:22:12;3.17;;;1.50;;
15936;SDS011;9163;48.818;8.976;2022-09-17T01:24:45;2.83;;;1.60;;
15936;SDS011;9163;48.818;8.976;2022-09-17T01:30:32;3.57;;;1.70;;
15936;SDS011;9163;48.818;8.976;2022-09-17T01:33:33;4.83;;;1.83;;
15936;SDS011;9163;48.818;8.976;2022-09-17T01:36:12;4.87;;;1.70;;
15936;SDS011;9163;48.818;8.976;2022-09-17T01:38:50;3.57;;;1.70;;
15936;SDS011;9163;48.818;8.976;2022-09-17T01:41:23;3.20;;;1.87;;
15936;SDS011;9163;48.818;8.976;2022-09-17T01:43:57;3.97;;;1.70;;
15936;SDS011;9163;48.818;8.976;2022-09-17T01:46:34;5.73;;;1.70;;
15936;SDS011;9163;48.818;8.976;2022-09-17T01:49:04;4.27;;;1.60;;
15936;SDS011;9163;48.818;8.976;2022-09-17T01:51:35;5.37;;;1.70;;
15936;SDS011;9163;48.818;8.976;2022-09-17T01:54:06;3.87;;;1.53;;
15936;SDS011;9163;48.818;8.976;2022-09-17T01:56:39;2.47;;;1.57;;
15936;SDS011;9163;48.818;8.976;2022-09-17T01:59:13;2.93;;;1.53;;
15936;SDS011;9163;48.818;8.976;2022-09-17T02:01:46;2.30;;;1.60;;
15936;SDS011;9163;48.818;8.976;2022-09-17T02:04:18;3.60;;;1.57;;
15936;SDS011;9163;48.818;8.976;2022-09-17T02:06:51;3.03;;;1.50;;
15936;SDS011;9163;48.818;8.976;2022-09-17T02:09:23;5.77;;;1.57;;
15936;SDS011;9163;48.818;8.976;2022-09-17T02:11:56;4.30;;;1.70;;
15936;SDS011;9163;48.818;8.976;2022-09-17T02:14:29;5.13;;;1.83;;
15936;SDS011;9163;48.818;8.976;2022-09-17T02:17:04;3.43;;;1.60;;
15936;SDS011;9163;48.818;8.976;2022-09-17T02:19:37;3.10;;;1.50;;
15936;SDS011;9163;48.818;8.976;2022-09-17T02:22:06;3.27;;;1.60;;
15936;SDS011;9163;48.818;8.976;2022-09-17T02:24:41;6.77;;;1.80;;
15936;SDS011;9163;48.818;8.976;2022-09-17T02:27:15;4.73;;;1.70;;
15936;SDS011;9163;48.818;8.976;2022-09-17T02:29:48;3.23;;;1.70;;
15936;SDS011;9163;48.818;8.976;2022-09-17T02:32:17;2.97;;;1.60;;
15936;SDS011;9163;48.818;8.976;2022-09-17T02:34:44;3.80;;;1.40;;
15936;SDS011;9163;48.818;8.976;2022-09-17T02:37:12;4.00;;;1.63;;
15936;SDS011;9163;48.818;8.976;2022-09-17T02:39:40;3.30;;;1.60;;
15936;SDS011;9163;48.818;8.976;2022-09-17T02:42:11;6.13;;;1.57;;
15936;SDS011;9163;48.818;8.976;2022-09-17T02:44:49;4.47;;;1.40;;
15936;SDS011;9163;48.818;8.976;2022-09-17T02:47:35;6.20;;;1.80;;
15936;SDS011;9163;48.818;8.976;2022-09-17T02:50:17;2.23;;;1.47;;
15936;SDS011;9163;48.818;8.976;2022-09-17T02:52:59;6.50;;;1.87;;
15936;SDS011;9163;48.818;8.976;2022-09-17T02:55:35;4.57;;;1.67;;
15936;SDS011;9163;48.818;8.976;2022-09-17T02:58:11;4.73;;;1.90;;
15936;SDS011;9163;48.818;8.976;2022-09-17T03:00:49;4.83;;;1.53;;
15936;SDS011;9163;48.818;8.976;2022-09-17T03:03:20;4.77;;;1.60;;
15936;SDS011;9163;48.818;8.976;2022-09-17T03:05:53;6.67;;;2.07;;
15936;SDS011;9163;48.818;8.976;2022-09-17T03:08:27;4.37;;;1.50;;
15936;SDS011;9163;48.818;8.976;2022-09-17T03:10:55;4.97;;;1.60;;
15936;SDS011;9163;48.818;8.976;2022-09-17T03:13:22;6.10;;;1.80;;
15936;SDS011;9163;48.818;8.976;2022-09-17T03:15:50;5.30;;;1.93;;
15936;SDS011;9163;48.818;8.976;2022-09-17T03:18:17;3.70;;;1.50;;
15936;SDS011;9163;48.818;8.976;2022-09-17T03:20:45;5.43;;;1.80;;
15936;SDS011;9163;48.818;8.976;2022-09-17T03:23:12;5.40;;;1.60;;
15936;SDS011;9163;48.818;8.976;2022-09-17T03:25:40;3.03;;;1.70;;
15936;SDS011;9163;48.818;8.976;2022-09-17T03:28:07;5.13;;;1.70;;
15936;SDS011;9163;48.818;8.976;2022-09-17T03:30:34;8.07;;;1.90;;
15936;SDS011;9163;48.818;8.976;2022-09-17T03:33:01;4.10;;;1.73;;
15936;SDS011;9163;48.818;8.976;2022-09-17T03:35:28;4.47;;;1.50;;
15936;SDS011;9163;48.818;8.976;2022-09-17T03:37:57;4.17;;;1.50;;
15936;SDS011;9163;48.818;8.976;2022-09-17T03:40:24;3.03;;;1.43;;
15936;SDS011;9163;48.818;8.976;2022-09-17T03:42:52;6.43;;;1.90;;
15936;SDS011;9163;48.818;8.976;2022-09-17T03:45:19;6.20;;;1.60;;
15936;SDS011;9163;48.818;8.976;2022-09-17T03:47:46;3.70;;;1.70;;
15936;SDS011;9163;48.818;8.976;2022-09-17T03:50:13;4.07;;;1.50;;
15936;SDS011;9163;48.818;8.976;2022-09-17T03:52:41;6.73;;;1.70;;
15936;SDS011;9163;48.818;8.976;2022-09-17T03:55:10;3.03;;;1.50;;
15936;SDS011;9163;48.818;8.976;2022-09-17T03:57:37;4.13;;;1.50;;
15936;SDS011;9163;48.818;8.976;2022-09-17T04:00:05;4.80;;;1.57;;
15936;SDS011;9163;48.818;8.976;2022-09-17T04:02:33;4.90;;;1.53;;
15936;SDS011;9163;48.818;8.976;2022-09-17T04:05:00;5.07;;;1.43;;
15936;SDS011;9163;48.818;8.976;2022-09-17T04:07:28;3.90;;;1.47;;
15936;SDS011;9163;48.818;8.976;2022-09-17T04:09:55;7.33;;;1.60;;
15936;SDS011;9163;48.818;8.976;2022-09-17T04:12:23;6.40;;;1.70;;
15936;SDS011;9163;48.818;8.976;2022-09-17T04:14:51;5.50;;;1.53;;
15936;SDS011;9163;48.818;8.976;2022-09-17T04:17:18;8.30;;;1.60;;
15936;SDS011;9163;48.818;8.976;2022-09-17T04:19:45;5.40;;;1.80;;
15936;SDS011;9163;48.818;8.976;2022-09-17T04:22:12;8.93;;;2.00;;
15936;SDS011;9163;48.818;8.976;2022-09-17T04:24:39;5.80;;;2.20;;
15936;SDS011;9163;48.818;8.976;2022-09-17T04:27:06;9.20;;;1.97;;
15936;SDS011;9163;48.818;8.976;2022-09-17T04:29:35;8.37;;;2.10;;
15936;SDS011;9163;48.818;8.976;2022-09-17T04:32:02;4.80;;;1.90;;
15936;SDS011;9163;48.818;8.976;2022-09-17T04:34:30;5.40;;;1.80;;
15936;SDS011;9163;48.818;8.976;2022-09-17T04:36:57;7.80;;;2.27;;
15936;SDS011;9163;48.818;8.976;2022-09-17T04:39:24;5.37;;;1.93;;
15936;SDS011;9163;48.818;8.976;2022-09-17T04:41:51;6.70;;;2.20;;
15936;SDS011;9163;48.818;8.976;2022-09-17T04:44:19;6.57;;;1.87;;
15936;SDS011;9163;48.818;8.976;2022-09-17T04:46:47;5.27;;;2.03;;
15936;SDS011;9163;48.818;8.976;2022-09-17T04:49:14;5.07;;;2.20;;
15936;SDS011;9163;48.818;8.976;2022-09-17T04:51:42;9.90;;;5.70;;
15936;SDS011;9163;48.818;8.976;2022-09-17T04:54:09;8.40;;;4.27;;
15936;SDS011;9163;48.818;8.976;2022-09-17T04:56:36;4.87;;;2.60;;
15936;SDS011;9163;48.818;8.976;2022-09-17T04:59:03;9.70;;;2.13;;
15936;SDS011;9163;48.818;8.976;2022-09-17T05:01:30;4.83;;;2.43;;
15936;SDS011;9163;48.818;8.976;2022-09-17T05:03:59;9.60;;;2.50;;
15936;SDS011;9163;48.818;8.976;2022-09-17T05:06:27;5.77;;;2.30;;
15936;SDS011;9163;48.818;8.976;2022-09-17T05:08:54;6.27;;;2.33;;
15936;SDS011;9163;48.818;8.976;2022-09-17T05:11:21;6.67;;;3.00;;
15936;SDS011;9163;48.818;8.976;2022-09-17T05:13:48;5.93;;;3.43;;
15936;SDS011;9163;48.818;8.976;2022-09-17T05:16:15;7.20;;;2.30;;
15936;SDS011;9163;48.818;8.976;2022-09-17T05:18:43;6.20;;;2.33;;
15936;SDS011;9163;48.818;8.976;2022-09-17T05:21:11;6.23;;;2.93;;
15936;SDS011;9163;48.818;8.976;2022-09-17T05:23:38;7.67;;;2.63;;
15936;SDS011;9163;48.818;8.976;2022-09-17T05:26:06;6.13;;;2.10;;
15936;SDS011;9163;48.818;8.976;2022-09-17T05:28:33;3.80;;;2.43;;
15936;SDS011;9163;48.818;8.976;2022-09-17T05:31:01;8.60;;;2.80;;
15936;SDS011;9163;48.818;8.976;2022-09-17T05:33:28;6.53;;;2.53;;
15936;SDS011;9163;48.818;8.976;2022-09-17T05:35:55;5.53;;;2.80;;
15936;SDS011;9163;48.818;8.976;2022-09-17T05:38:24;10.67;;;3.47;;
15936;SDS011;9163;48.818;8.976;2022-09-17T05:40:51;7.13;;;3.40;;
15936;SDS011;9163;48.818;8.976;2022-09-17T05:43:18;6.70;;;3.80;;
15936;SDS011;9163;48.818;8.976;2022-09-17T05:45:45;8.00;;;4.10;;
15936;SDS011;9163;48.818;8.976;2022-09-17T05:48:13;5.83;;;3.20;;
15936;SDS011;9163;48.818;8.976;2022-09-17T05:50:41;10.33;;;5.37;;
15936;SDS011;9163;48.818;8.976;2022-09-17T05:53:09;5.43;;;3.20;;
15936;SDS011;9163;48.818;8.976;2022-09-17T05:55:39;9.27;;;3.17;;
15936;SDS011;9163;48.818;8.976;2022-09-17T05:58:10;8.97;;;3.03;;
15936;SDS011;9163;48.818;8.976;2022-09-17T06:00:38;7.77;;;2.63;;
15936;SDS011;9163;48.818;8.976;2022-09-17T06:03:07;8.17;;;2.90;;
15936;SDS011;9163;48.818;8.976;2022-09-17T06:05:35;8.13;;;2.83;;
15936;SDS011;9163;48.818;8.976;2022-09-17T06:08:03;6.57;;;2.80;;
15936;SDS011;9163;48.818;8.976;2022-09-17T06:10:31;6.20;;;2.73;;
15936;SDS011;9163;48.818;8.976;2022-09-17T06:13:02;5.33;;;2.60;;
15936;SDS011;9163;48.818;8.976;2022-09-17T06:15:30;5.23;;;2.37;;
15936;SDS011;9163;48.818;8.976;2022-09-17T06:17:57;6.13;;;2.37;;
15936;SDS011;9163;48.818;8.976;2022-09-17T06:20:24;4.47;;;2.43;;
15936;SDS011;9163;48.818;8.976;2022-09-17T06:22:54;10.90;;;3.73;;
15936;SDS011;9163;48.818;8.976;2022-09-17T06:25:22;8.87;;;2.90;;
15936;SDS011;9163;48.818;8.976;2022-09-17T06:27:49;6.13;;;4.43;;
15936;SDS011;9163;48.818;8.976;2022-09-17T06:30:18;6.83;;;2.50;;
15936;SDS011;9163;48.818;8.976;2022-09-17T06:32:45;5.40;;;3.10;;
15936;SDS011;9163;48.818;8.976;2022-09-17T06:35:12;13.50;;;7.33;;
15936;SDS011;9163;48.818;8.976;2022-09-17T06:37:40;7.97;;;4.20;;
15936;SDS011;9163;48.818;8.976;2022-09-17T06:40:07;6.83;;;2.60;;
15936;SDS011;9163;48.818;8.976;2022-09-17T06:42:35;6.30;;;3.30;;
15936;SDS011;9163;48.818;8.976;2022-09-17T06:45:02;6.07;;;3.07;;
15936;SDS011;9163;48.818;8.976;2022-09-17T06:47:31;5.77;;;2.80;;
15936;SDS011;9163;48.818;8.976;2022-09-17T06:49:59;7.20;;;2.80;;
15936;SDS011;9163;48.818;8.976;2022-09-17T06:52:26;7.57;;;3.00;;
15936;SDS011;9163;48.818;8.976;2022-09-17T06:54:53;6.37;;;3.37;;
15936;SDS011;9163;48.818;8.976;2022-09-17T06:57:20;6.50;;;3.10;;
15936;SDS011;9163;48.818;8.976;2022-09-17T06:59:48;6.77;;;3.43;;
15936;SDS011;9163;48.818;8.976;2022-09-17T07:02:16;5.53;;;4.10;;
15936;SDS011;9163;48.818;8.976;2022-09-17T07:04:44;6.20;;;3.30;;
15936;SDS011;9163;48.818;8.976;2022-09-17T07:07:12;6.67;;;2.87;;
15936;SDS011;9163;48.818;8.976;2022-09-17T07:09:39;4.53;;;2.70;;
15936;SDS011;9163;48.818;8.976;2022-09-17T07:12:07;6.83;;;2.50;;
15936;SDS011;9163;48.818;8.976;2022-09-17T07:14:34;4.60;;;2.60;;
15936;SDS011;9163;48.818;8.976;2022-09-17T07:17:01;4.67;;;2.50;;
15936;SDS011;9163;48.818;8.976;2022-09-17T07:19:29;5.00;;;2.20;;
15936;SDS011;9163;48.818;8.976;2022-09-17T07:21:57;6.50;;;2.30;;
15936;SDS011;9163;48.818;8.976;2022-09-17T07:24:24;4.50;;;2.17;;
15936;SDS011;9163;48.818;8.976;2022-09-17T07:26:52;4.90;;;2.33;;
15936;SDS011;9163;48.818;8.976;2022-09-17T07:29:19;5.10;;;2.30;;
15936;SDS011;9163;48.818;8.976;2022-09-17T07:31:47;5.63;;;2.40;;
15936;SDS011;9163;48.818;8.976;2022-09-17T07:34:14;3.60;;;2.20;;
15936;SDS011;9163;48.818;8.976;2022-09-17T07:36:41;5.83;;;2.60;;
15936;SDS011;9163;48.818;8.976;2022-09-17T07:39:11;6.07;;;3.03;;
15936;SDS011;9163;48.818;8.976;2022-09-17T07:41:38;6.13;;;2.90;;
15936;SDS011;9163;48.818;8.976;2022-09-17T07:44:06;5.57;;;3.00;;
15936;SDS011;9163;48.818;8.976;2022-09-17T07:46:34;6.07;;;3.27;;
15936;SDS011;9163;48.818;8.976;2022-09-17T07:49:01;6.87;;;3.50;;
15936;SDS011;9163;48.818;8.976;2022-09-17T07:51:28;5.63;;;2.90;;
15936;SDS011;9163;48.818;8.976;2022-09-17T07:53:56;6.53;;;3.40;;
15936;SDS011;9163;48.818;8.976;2022-09-17T07:56:26;8.23;;;3.63;;
15936;SDS011;9163;48.818;8.976;2022-09-17T07:58:53;5.00;;;3.07;;
15936;SDS011;9163;48.818;8.976;2022-09-17T08:01:20;8.17;;;3.53;;
15936;SDS011;9163;48.818;8.976;2022-09-17T08:03:48;6.97;;;3.57;;
15936;SDS011;9163;48.818;8.976;2022-09-17T08:06:17;8.50;;;3.40;;
15936;SDS011;9163;48.818;8.976;2022-09-17T08:08:45;8.50;;;3.43;;
15936;SDS011;9163;48.818;8.976;2022-09-17T08:11:13;7.77;;;3.63;;
15936;SDS011;9163;48.818;8.976;2022-09-17T08:13:46;6.27;;;3.00;;
15936;SDS011;9163;48.818;8.976;2022-09-17T08:16:13;8.07;;;3.20;;
15936;SDS011;9163;48.818;8.976;2022-09-17T08:18:41;7.67;;;2.97;;
15936;SDS011;9163;48.818;8.976;2022-09-17T08:21:09;6.90;;;3.00;;
15936;SDS011;9163;48.818;8.976;2022-09-17T08:23:38;8.50;;;3.17;;
15936;SDS011;9163;48.818;8.976;2022-09-17T08:26:07;8.00;;;2.93;;
15936;SDS011;9163;48.818;8.976;2022-09-17T08:28:38;7.83;;;3.50;;
15936;SDS011;9163;48.818;8.976;2022-09-17T08:31:07;12.03;;;6.10;;
15936;SDS011;9163;48.818;8.976;2022-09-17T08:33:35;7.77;;;3.40;;
15936;SDS011;9163;48.818;8.976;2022-09-17T08:36:04;4.87;;;2.83;;
15936;SDS011;9163;48.818;8.976;2022-09-17T08:38:33;6.80;;;2.80;;
15936;SDS011;9163;48.818;8.976;2022-09-17T08:41:06;10.27;;;2.37;;
15936;SDS011;9163;48.818;8.976;2022-09-17T08:43:45;8.20;;;2.80;;
15936;SDS011;9163;48.818;8.976;2022-09-17T08:46:18;11.00;;;4.70;;
15936;SDS011;9163;48.818;8.976;2022-09-17T08:48:47;10.23;;;2.40;;
15936;SDS011;9163;48.818;8.976;2022-09-17T08:51:23;10.17;;;2.30;;
15936;SDS011;9163;48.818;8.976;2022-09-17T08:54:01;6.73;;;2.13;;
15936;SDS011;9163;48.818;8.976;2022-09-17T08:56:33;7.63;;;2.17;;
15936;SDS011;9163;48.818;8.976;2022-09-17T08:59:03;8.13;;;2.40;;
15936;SDS011;9163;48.818;8.976;2022-09-17T09:01:39;8.83;;;2.30;;
15936;SDS011;9163;48.818;8.976;2022-09-17T09:04:15;12.87;;;2.50;;
15936;SDS011;9163;48.818;8.976;2022-09-17T09:07:09;9.30;;;2.50;;
15936;SDS011;9163;48.818;8.976;2022-09-17T09:09:40;7.30;;;1.97;;
15936;SDS011;9163;48.818;8.976;2022-09-17T09:12:14;5.80;;;2.10;;
15936;SDS011;9163;48.818;8.976;2022-09-17T09:14:47;6.07;;;2.10;;
15936;SDS011;9163;48.818;8.976;2022-09-17T09:17:18;7.73;;;2.20;;
15936;SDS011;9163;48.818;8.976;2022-09-17T09:19:50;7.97;;;2.60;;
15936;SDS011;9163;48.818;8.976;2022-09-17T09:22:23;5.47;;;1.73;;
15936;SDS011;9163;48.818;8.976;2022-09-17T09:25:08;8.50;;;2.00;;
15936;SDS011;9163;48.818;8.976;2022-09-17T09:27:46;10.57;;;2.17;;
15936;SDS011;9163;48.818;8.976;2022-09-17T09:30:21;5.77;;;2.03;;
15936;SDS011;9163;48.818;8.976;2022-09-17T09:32:53;5.87;;;2.23;;
15936;SDS011;9163;48.818;8.976;2022-09-17T09:35:24;5.67;;;1.87;;
15936;SDS011;9163;48.818;8.976;2022-09-17T09:37:55;4.63;;;1.90;;
15936;SDS011;9163;48.818;8.976;2022-09-17T09:40:30;6.17;;;2.00;;
15936;SDS011;9163;48.818;8.976;2022-09-17T09:43:03;5.97;;;2.40;;
15936;SDS011;9163;48.818;8.976;2022-09-17T09:45:44;6.00;;;2.10;;
15936;SDS011;9163;48.818;8.976;2022-09-17T09:48:42;4.33;;;2.03;;
15936;SDS011;9163;48.818;8.976;2022-09-17T09:51:17;5.87;;;2.00;;
15936;SDS011;9163;48.818;8.976;2022-09-17T09:53:59;4.90;;;2.20;;
15936;SDS011;9163;48.818;8.976;2022-09-17T09:56:46;9.10;;;2.60;;
15936;SDS011;9163;48.818;8.976;2022-09-17T09:59:19;6.47;;;2.33;;
15936;SDS011;9163;48.818;8.976;2022-09-17T10:01:46;5.03;;;1.53;;
15936;SDS011;9163;48.818;8.976;2022-09-17T10:04:16;4.37;;;1.77;;
15936;SDS011;9163;48.818;8.976;2022-09-17T10:06:46;6.27;;;1.90;;
15936;SDS011;9163;48.818;8.976;2022-09-17T10:09:15;7.63;;;1.97;;
15936;SDS011;9163;48.818;8.976;2022-09-17T10:11:57;5.90;;;1.90;;
15936;SDS011;9163;48.818;8.976;2022-09-17T10:14:30;6.63;;;1.60;;
15936;SDS011;9163;48.818;8.976;2022-09-17T10:19:43;4.20;;;1.47;;
15936;SDS011;9163;48.818;8.976;2022-09-17T10:22:17;6.93;;;2.07;;
15936;SDS011;9163;48.818;8.976;2022-09-17T10:24:53;9.00;;;1.57;;
15936;SDS011;9163;48.818;8.976;2022-09-17T10:27:30;8.53;;;1.70;;
15936;SDS011;9163;48.818;8.976;2022-09-17T10:30:00;3.87;;;1.20;;
15936;SDS011;9163;48.818;8.976;2022-09-17T10:32:29;3.77;;;1.43;;
15936;SDS011;9163;48.818;8.976;2022-09-17T10:34:59;6.53;;;1.80;;
15936;SDS011;9163;48.818;8.976;2022-09-17T10:37:33;4.10;;;1.30;;
15936;SDS011;9163;48.818;8.976;2022-09-17T10:40:24;4.83;;;1.50;;
15936;SDS011;9163;48.818;8.976;2022-09-17T10:45:57;3.50;;;1.67;;
15936;SDS011;9163;48.818;8.976;2022-09-17T10:48:26;6.23;;;1.40;;
15936;SDS011;9163;48.818;8.976;2022-09-17T10:50:58;6.27;;;1.50;;
15936;SDS011;9163;48.818;8.976;2022-09-17T10:53:27;3.50;;;1.30;;
15936;SDS011;9163;48.818;8.976;2022-09-17T10:55:57;6.63;;;1.13;;
15936;SDS011;9163;48.818;8.976;2022-09-17T10:58:39;6.43;;;1.40;;
15936;SDS011;9163;48.818;8.976;2022-09-17T11:01:16;5.40;;;1.40;;
15936;SDS011;9163;48.818;8.976;2022-09-17T11:07:11;4.87;;;1.43;;
15936;SDS011;9163;48.818;8.976;2022-09-17T11:09:50;6.37;;;1.30;;
15936;SDS011;9163;48.818;8.976;2022-09-17T11:12:31;4.10;;;1.10;;
15936;SDS011;9163;48.818;8.976;2022-09-17T11:15:10;3.33;;;1.20;;
15936;SDS011;9163;48.818;8.976;2022-09-17T11:17:52;5.00;;;1.07;;
15936;SDS011;9163;48.818;8.976;2022-09-17T11:20:31;3.63;;;1.00;;
15936;SDS011;9163;48.818;8.976;2022-09-17T11:23:18;5.80;;;1.10;;
15936;SDS011;9163;48.818;8.976;2022-09-17T11:25:56;6.97;;;1.10;;
15936;SDS011;9163;48.818;8.976;2022-09-17T11:28:32;6.10;;;1.30;;
15936;SDS011;9163;48.818;8.976;2022-09-17T11:31:13;2.60;;;0.97;;
15936;SDS011;9163;48.818;8.976;2022-09-17T11:36:53;5.70;;;0.93;;
15936;SDS011;9163;48.818;8.976;2022-09-17T11:39:27;3.40;;;0.90;;
15936;SDS011;9163;48.818;8.976;2022-09-17T11:42:00;6.03;;;1.17;;
15936;SDS011;9163;48.818;8.976;2022-09-17T11:44:34;3.37;;;1.00;;
15936;SDS011;9163;48.818;8.976;2022-09-17T11:47:07;3.77;;;1.17;;
15936;SDS011;9163;48.818;8.976;2022-09-17T11:49:40;3.13;;;0.93;;
15936;SDS011;9163;48.818;8.976;2022-09-17T11:52:12;4.83;;;1.20;;
15936;SDS011;9163;48.818;8.976;2022-09-17T11:54:48;4.37;;;1.13;;
15936;SDS011;9163;48.818;8.976;2022-09-17T11:57:18;3.03;;;1.00;;
15936;SDS011;9163;48.818;8.976;2022-09-17T11:59:49;6.20;;;1.20;;
15936;SDS011;9163;48.818;8.976;2022-09-17T12:02:20;4.10;;;1.10;;
15936;SDS011;9163;48.818;8.976;2022-09-17T12:04:53;2.77;;;1.00;;
15936;SDS011;9163;48.818;8.976;2022-09-17T12:07:26;6.10;;;1.17;;
15936;SDS011;9163;48.818;8.976;2022-09-17T12:10:01;2.40;;;0.87;;
15936;SDS011;9163;48.818;8.976;2022-09-17T12:12:45;2.93;;;0.90;;
15936;SDS011;9163;48.818;8.976;2022-09-17T12:15:19;2.40;;;1.10;;
15936;SDS011;9163;48.818;8.976;2022-09-17T12:17:51;4.10;;;1.07;;
15936;SDS011;9163;48.818;8.976;2022-09-17T12:20:26;4.60;;;1.00;;
15936;SDS011;9163;48.818;8.976;2022-09-17T12:22:57;4.30;;;0.93;;
15936;SDS011;9163;48.818;8.976;2022-09-17T12:25:31;5.33;;;1.23;;
15936;SDS011;9163;48.818;8.976;2022-09-17T12:28:04;2.60;;;0.90;;
15936;SDS011;9163;48.818;8.976;2022-09-17T12:30:36;3.63;;;2.17;;
15936;SDS011;9163;48.818;8.976;2022-09-17T12:33:12;5.43;;;1.83;;
15936;SDS011;9163;48.818;8.976;2022-09-17T12:35:49;5.13;;;1.20;;
15936;SDS011;9163;48.818;8.976;2022-09-17T12:41:40;2.73;;;1.20;;
15936;SDS011;9163;48.818;8.976;2022-09-17T12:47:24;5.63;;;5.13;;
15936;SDS011;9163;48.818;8.976;2022-09-17T12:50:14;7.10;;;4.23;;
15936;SDS011;9163;48.818;8.976;2022-09-17T12:52:48;6.50;;;2.27;;
15936;SDS011;9163;48.818;8.976;2022-09-17T12:55:30;4.63;;;2.33;;
15936;SDS011;9163;48.818;8.976;2022-09-17T12:58:09;2.43;;;1.63;;
15936;SDS011;9163;48.818;8.976;2022-09-17T13:00:45;3.97;;;1.57;;
15936;SDS011;9163;48.818;8.976;2022-09-17T13:03:19;2.80;;;1.67;;
15936;SDS011;9163;48.818;8.976;2022-09-17T13:08:47;2.70;;;1.60;;
15936;SDS011;9163;48.818;8.976;2022-09-17T13:11:39;2.30;;;1.50;;
15936;SDS011;9163;48.818;8.976;2022-09-17T13:14:23;2.57;;;1.60;;
15936;SDS011;9163;48.818;8.976;2022-09-17T13:16:59;3.00;;;1.70;;
15936;SDS011;9163;48.818;8.976;2022-09-17T13:19:33;3.40;;;1.67;;
15936;SDS011;9163;48.818;8.976;2022-09-17T13:22:06;3.80;;;1.70;;
15936;SDS011;9163;48.818;8.976;2022-09-17T13:24:42;3.33;;;1.20;;
15936;SDS011;9163;48.818;8.976;2022-09-17T13:27:18;3.23;;;1.30;;
15936;SDS011;9163;48.818;8.976;2022-09-17T13:29:57;1.90;;;1.23;;
15936;SDS011;9163;48.818;8.976;2022-09-17T13:32:47;3.00;;;1.30;;
15936;SDS011;9163;48.818;8.976;2022-09-17T13:38:14;2.37;;;1.20;;
15936;SDS011;9163;48.818;8.976;2022-09-17T13:40:43;2.63;;;1.10;;
15936;SDS011;9163;48.818;8.976;2022-09-17T13:43:12;3.73;;;1.00;;
15936;SDS011;9163;48.818;8.976;2022-09-17T13:48:35;2.60;;;1.20;;
15936;SDS011;9163;48.818;8.976;2022-09-17T13:54:12;3.47;;;1.03;;
15936;SDS011;9163;48.818;8.976;2022-09-17T13:56:42;3.60;;;1.10;;
15936;SDS011;9163;48.818;8.976;2022-09-17T13:59:12;3.33;;;0.93;;
15936;SDS011;9163;48.818;8.976;2022-09-17T14:02:00;3.77;;;1.20;;
15936;SDS011;9163;48.818;8.976;2022-09-17T14:14:14;3.33;;;1.13;;
15936;SDS011;9163;48.818;8.976;2022-09-17T14:20:17;3.10;;;1.40;;
15936;SDS011;9163;48.818;8.976;2022-09-17T14:22:53;3.93;;;1.20;;
15936;SDS011;9163;48.818;8.976;2022-09-17T14:25:23;3.93;;;1.70;;
15936;SDS011;9163;48.818;8.976;2022-09-17T14:27:58;3.97;;;1.80;;
15936;SDS011;9163;48.818;8.976;2022-09-17T14:30:28;2.93;;;1.77;;
15936;SDS011;9163;48.818;8.976;2022-09-17T14:33:01;2.57;;;1.47;;
15936;SDS011;9163;48.818;8.976;2022-09-17T14:35:32;3.73;;;1.37;;
15936;SDS011;9163;48.818;8.976;2022-09-17T14:38:02;5.40;;;1.30;;
15936;SDS011;9163;48.818;8.976;2022-09-17T14:40:35;3.73;;;1.33;;
15936;SDS011;9163;48.818;8.976;2022-09-17T14:43:12;3.23;;;1.17;;
15936;SDS011;9163;48.818;8.976;2022-09-17T14:45:44;4.33;;;1.30;;
15936;SDS011;9163;48.818;8.976;2022-09-17T14:48:17;5.37;;;1.20;;
15936;SDS011;9163;48.818;8.976;2022-09-17T14:50:49;2.67;;;1.20;;
15936;SDS011;9163;48.818;8.976;2022-09-17T14:53:17;3.13;;;1.17;;
15936;SDS011;9163;48.818;8.976;2022-09-17T14:55:46;4.77;;;1.70;;
15936;SDS011;9163;48.818;8.976;2022-09-17T14:58:24;3.67;;;1.30;;
15936;SDS011;9163;48.818;8.976;2022-09-17T15:00:56;5.37;;;1.60;;
15936;SDS011;9163;48.818;8.976;2022-09-17T15:03:25;5.13;;;2.70;;
15936;SDS011;9163;48.818;8.976;2022-09-17T15:05:52;6.07;;;1.70;;
15936;SDS011;9163;48.818;8.976;2022-09-17T15:08:20;4.53;;;1.83;;
15936;SDS011;9163;48.818;8.976;2022-09-17T15:10:50;6.30;;;1.63;;
15936;SDS011;9163;48.818;8.976;2022-09-17T15:13:20;4.43;;;1.40;;
15936;SDS011;9163;48.818;8.976;2022-09-17T15:15:51;4.13;;;1.47;;
15936;SDS011;9163;48.818;8.976;2022-09-17T15:18:21;5.57;;;1.57;;
15936;SDS011;9163;48.818;8.976;2022-09-17T15:21:03;4.20;;;1.33;;
15936;SDS011;9163;48.818;8.976;2022-09-17T15:23:37;4.93;;;1.53;;
15936;SDS011;9163;48.818;8.976;2022-09-17T15:26:04;4.47;;;1.50;;
15936;SDS011;9163;48.818;8.976;2022-09-17T15:28:33;4.73;;;1.40;;
15936;SDS011;9163;48.818;8.976;2022-09-17T15:31:02;5.93;;;1.67;;
15936;SDS011;9163;48.818;8.976;2022-09-17T15:33:32;5.13;;;1.47;;
15936;SDS011;9163;48.818;8.976;2022-09-17T15:36:02;5.07;;;1.57;;
15936;SDS011;9163;48.818;8.976;2022-09-17T15:38:40;4.27;;;1.60;;
15936;SDS011;9163;48.818;8.976;2022-09-17T15:41:11;4.00;;;1.43;;
15936;SDS011;9163;48.818;8.976;2022-09-17T15:43:52;4.43;;;1.50;;
15936;SDS011;9163;48.818;8.976;2022-09-17T15:46:22;5.00;;;1.03;;
15936;SDS011;9163;48.818;8.976;2022-09-17T15:48:53;3.67;;;1.13;;
15936;SDS011;9163;48.818;8.976;2022-09-17T15:51:22;3.57;;;1.20;;
15936;SDS011;9163;48.818;8.976;2022-09-17T15:53:52;1.83;;;1.13;;
15936;SDS011;9163;48.818;8.976;2022-09-17T15:56:21;3.93;;;1.10;;
15936;SDS011;9163;48.818;8.976;2022-09-17T15:58:50;3.40;;;1.23;;
15936;SDS011;9163;48.818;8.976;2022-09-17T16:04:25;2.63;;;1.30;;
15936;SDS011;9163;48.818;8.976;2022-09-17T16:06:58;2.47;;;1.30;;
15936;SDS011;9163;48.818;8.976;2022-09-17T16:09:37;4.70;;;1.23;;
15936;SDS011;9163;48.818;8.976;2022-09-17T16:12:06;5.77;;;1.50;;
15936;SDS011;9163;48.818;8.976;2022-09-17T16:14:34;2.97;;;1.20;;
15936;SDS011;9163;48.818;8.976;2022-09-17T16:17:17;4.17;;;1.50;;